Time;durP1;ratioP1;P1;durP2;ratioP2;P2;SDS_P1;SDS_P2;PMS_P1;PMS_P2;Temp;Humidity;BMP_temperature;BMP_pressure;BME280_temperature;BME280_humidity;BME280_pressure;Samples;Min_cycle;Max_cycle;Signal;HPM_P1;HPM_P2
2022/05/02 00:00:42;;;;;;;;;;;11.20;92.80;;;;;;7346526;19;107436;-82
2022/05/02 00:03:09;;;;;;;;;;;11.10;92.60;;;;;;7349660;19;109191;-81
2022/05/02 00:05:37;;;;;;;;;;;11.10;92.30;;;;;;7345824;19;107850;-82
2022/05/02 00:08:04;;;;;;;;;;;11.10;92.60;;;;;;7344970;19;109317;-82
2022/05/02 00:10:32;;;;;;;;;;;11.00;92.10;;;;;;7347345;19;107687;-81
2022/05/02 00:13:00;;;;;;;;;;;11.10;92.00;;;;;;7346860;19;111287;-82
2022/05/02 00:15:28;;;;;;;;;;;11.00;92.30;;;;;;7344652;19;109771;-81
2022/05/02 00:17:58;;;;;;;;;;;11.00;92.20;;;;;;7340989;19;107806;-82
2022/05/02 00:20:35;;;;;;;;;;;10.90;93.30;;;;;;7345572;19;108023;-81
2022/05/02 00:23:03;;;;;;;;;;;10.80;92.60;;;;;;7343263;19;108865;-81
2022/05/02 00:25:30;;;;;;;;;;;10.80;92.70;;;;;;7351709;19;107375;-82
2022/05/02 00:27:58;;;;;;;;;;;10.80;92.60;;;;;;7341979;19;109013;-82
2022/05/02 00:30:25;;;;;;;;;;;10.70;93.60;;;;;;7345865;19;107391;-82
2022/05/02 00:32:52;;;;;;;;;;;10.70;92.90;;;;;;7345771;19;108620;-81
2022/05/02 00:35:19;;;;;;;;;;;10.60;94.00;;;;;;7345220;19;109003;-82
2022/05/02 00:37:47;;;;;;;;;;;10.60;92.80;;;;;;7341645;19;107378;-82
2022/05/02 00:40:15;;;;;;;;;;;10.60;93.60;;;;;;7346174;19;108192;-81
2022/05/02 00:42:43;;;;;;;;;;;10.60;93.40;;;;;;7343627;19;108830;-82
2022/05/02 00:45:10;;;;;;;;;;;10.60;93.30;;;;;;7343600;19;107998;-81
2022/05/02 00:47:37;;;;;;;;;;;10.60;93.80;;;;;;7350325;19;108096;-82
2022/05/02 00:50:06;;;;;;;;;;;10.50;95.10;;;;;;7342186;19;107372;-82
2022/05/02 00:52:33;;;;;;;;;;;10.30;95.80;;;;;;7345955;19;108192;-82
2022/05/02 00:55:00;;;;;;;;;;;10.30;95.20;;;;;;7345156;19;108827;-82
2022/05/02 00:57:28;;;;;;;;;;;10.30;94.80;;;;;;7343406;19;108416;-82
2022/05/02 00:59:55;;;;;;;;;;;10.30;95.30;;;;;;7344829;19;108235;-82
2022/05/02 01:02:22;;;;;;;;;;;10.30;94.80;;;;;;7345390;19;108489;-81
2022/05/02 01:04:49;;;;;;;;;;;10.40;94.60;;;;;;7343441;19;107263;-82
2022/05/02 01:07:19;;;;;;;;;;;10.30;95.00;;;;;;7348218;19;108472;-82
2022/05/02 01:09:47;;;;;;;;;;;10.30;94.80;;;;;;7343660;19;108033;-82
2022/05/02 01:12:21;;;;;;;;;;;10.30;95.10;;;;;;7344815;19;108237;-82
2022/05/02 01:14:50;;;;;;;;;;;10.20;96.10;;;;;;7342962;19;109118;-82
2022/05/02 01:17:17;;;;;;;;;;;10.20;95.80;;;;;;7340750;19;111251;-82
2022/05/02 01:19:44;;;;;;;;;;;10.10;95.70;;;;;;7344812;19;108108;-82
2022/05/02 01:22:11;;;;;;;;;;;10.10;95.90;;;;;;7343174;19;107918;-82
2022/05/02 01:24:39;;;;;;;;;;;10.00;96.60;;;;;;7343217;19;108204;-81
2022/05/02 01:27:07;;;;;;;;;;;10.00;95.70;;;;;;7343366;19;107899;-82
2022/05/02 01:29:35;;;;;;;;;;;10.00;96.20;;;;;;7347294;19;109117;-82
2022/05/02 01:32:06;;;;;;;;;;;10.00;96.90;;;;;;7342154;19;108441;-81
2022/05/02 01:34:37;;;;;;;;;;;9.90;96.80;;;;;;7343402;19;107926;-82
2022/05/02 01:37:04;;;;;;;;;;;9.90;95.90;;;;;;7342772;19;107677;-81
2022/05/02 01:39:30;;;;;;;;;;;9.90;95.80;;;;;;7342740;19;108822;-82
2022/05/02 01:42:04;;;;;;;;;;;9.90;95.80;;;;;;7343400;19;108916;-82
2022/05/02 01:44:31;;;;;;;;;;;9.90;96.00;;;;;;7344475;19;108274;-82
2022/05/02 01:46:59;;;;;;;;;;;9.80;98.00;;;;;;7343531;19;107294;-82
2022/05/02 01:49:26;;;;;;;;;;;9.70;97.00;;;;;;7341311;19;109169;-82
2022/05/02 01:51:53;;;;;;;;;;;9.70;96.60;;;;;;7348914;19;107346;-82
2022/05/02 01:54:20;;;;;;;;;;;9.60;97.90;;;;;;7342629;19;109078;-82
2022/05/02 01:56:47;;;;;;;;;;;9.60;97.90;;;;;;7344016;19;107243;-82
2022/05/02 01:59:14;;;;;;;;;;;9.60;96.80;;;;;;7350860;19;107439;-81
2022/05/02 02:01:41;;;;;;;;;;;9.60;96.80;;;;;;7351324;19;111995;-82
2022/05/02 02:06:54;;;;;;;;;;;9.50;97.40;;;;;;7350037;19;107906;-81
2022/05/02 02:09:21;;;;;;;;;;;9.40;97.30;;;;;;7348782;19;108761;-82
2022/05/02 02:11:48;;;;;;;;;;;9.40;97.00;;;;;;7348789;19;107126;-81
2022/05/02 02:14:15;;;;;;;;;;;9.40;97.50;;;;;;7354662;19;108141;-81
2022/05/02 02:16:42;;;;;;;;;;;9.40;98.10;;;;;;7347386;19;107369;-82
2022/05/02 02:19:09;;;;;;;;;;;9.20;98.40;;;;;;7348469;19;107276;-82
2022/05/02 02:21:35;;;;;;;;;;;9.00;99.90;;;;;;7347861;19;109225;-81
2022/05/02 02:24:03;;;;;;;;;;;9.00;98.60;;;;;;7350732;19;107222;-82
2022/05/02 02:26:30;;;;;;;;;;;8.90;99.10;;;;;;7349689;19;108050;-81
2022/05/02 02:28:58;;;;;;;;;;;8.90;98.80;;;;;;7345886;19;107918;-82
2022/05/02 02:31:25;;;;;;;;;;;9.00;98.20;;;;;;7349404;19;106950;-82
2022/05/02 02:33:52;;;;;;;;;;;9.00;98.50;;;;;;7348242;19;107234;-82
2022/05/02 02:36:19;;;;;;;;;;;9.00;98.10;;;;;;7352275;19;108724;-81
2022/05/02 02:38:45;;;;;;;;;;;8.90;98.30;;;;;;7349426;19;107879;-81
2022/05/02 02:41:12;;;;;;;;;;;8.90;98.60;;;;;;7348599;19;108935;-82
2022/05/02 02:43:39;;;;;;;;;;;8.90;98.80;;;;;;7348625;19;107693;-81
2022/05/02 02:46:06;;;;;;;;;;;8.90;97.80;;;;;;7348138;19;108350;-82
2022/05/02 02:48:34;;;;;;;;;;;8.90;97.90;;;;;;7347304;19;108672;-82
2022/05/02 02:51:01;;;;;;;;;;;8.80;98.40;;;;;;7348724;19;107190;-81
2022/05/02 02:53:28;;;;;;;;;;;8.70;99.90;;;;;;7348069;19;110565;-81
2022/05/02 02:55:56;;;;;;;;;;;8.50;99.40;;;;;;7347301;19;109550;-82
2022/05/02 02:58:23;;;;;;;;;;;8.50;99.00;;;;;;7352144;19;107277;-81
2022/05/02 03:00:50;;;;;;;;;;;8.50;99.60;;;;;;7346289;19;107867;-81
2022/05/02 03:03:17;;;;;;;;;;;8.50;98.80;;;;;;7349095;19;107261;-82
2022/05/02 03:06:03;;;;;;;;;;;8.50;98.50;;;;;;7345445;19;108239;-82
2022/05/02 03:08:32;;;;;;;;;;;8.50;98.50;;;;;;7342929;19;108026;-81
2022/05/02 03:11:00;;;;;;;;;;;8.50;99.10;;;;;;7343384;19;107651;-81
2022/05/02 03:13:26;;;;;;;;;;;8.40;98.90;;;;;;7346082;19;107927;-81
2022/05/02 03:15:54;;;;;;;;;;;8.40;99.30;;;;;;7345316;19;109109;-81
2022/05/02 03:18:21;;;;;;;;;;;8.30;99.40;;;;;;7351386;19;108234;-81
2022/05/02 03:20:48;;;;;;;;;;;8.20;99.60;;;;;;7344736;19;108894;-81
2022/05/02 03:23:15;;;;;;;;;;;8.20;99.90;;;;;;7348337;19;107567;-81
2022/05/02 03:25:42;;;;;;;;;;;8.10;99.90;;;;;;7349126;19;108007;-81
2022/05/02 03:28:10;;;;;;;;;;;8.00;99.90;;;;;;7347108;19;109020;-81
2022/05/02 03:30:37;;;;;;;;;;;7.90;99.90;;;;;;7346366;19;107138;-81
2022/05/02 03:33:04;;;;;;;;;;;7.80;99.90;;;;;;7347687;19;107618;-81
2022/05/02 03:35:30;;;;;;;;;;;7.80;99.90;;;;;;7347545;19;108421;-81
2022/05/02 03:37:57;;;;;;;;;;;7.80;99.90;;;;;;7346901;19;107592;-81
2022/05/02 03:40:24;;;;;;;;;;;7.80;99.90;;;;;;7352870;19;107965;-81
2022/05/02 03:42:51;;;;;;;;;;;7.80;99.90;;;;;;7347992;19;107264;-81
2022/05/02 03:45:18;;;;;;;;;;;7.80;99.90;;;;;;7347350;19;108216;-80
2022/05/02 03:47:45;;;;;;;;;;;7.70;99.90;;;;;;7347300;19;109296;-80
2022/05/02 03:50:12;;;;;;;;;;;7.60;99.90;;;;;;7344231;19;108278;-80
2022/05/02 03:52:39;;;;;;;;;;;7.50;99.90;;;;;;7348079;19;108924;-80
2022/05/02 03:55:07;;;;;;;;;;;7.50;99.90;;;;;;7346746;19;109076;-81
2022/05/02 03:57:34;;;;;;;;;;;7.60;99.90;;;;;;7348005;19;108859;-81
2022/05/02 04:00:01;;;;;;;;;;;7.60;99.90;;;;;;7347786;19;107861;-81
2022/05/02 04:02:28;;;;;;;;;;;7.60;99.90;;;;;;7352122;19;109606;-81
2022/05/02 04:04:55;;;;;;;;;;;7.60;99.90;;;;;;7345196;19;107133;-81
2022/05/02 04:07:22;;;;;;;;;;;7.60;99.90;;;;;;7345136;19;109665;-81
2022/05/02 04:09:49;;;;;;;;;;;7.50;99.90;;;;;;7343615;19;107432;-81
2022/05/02 04:12:16;;;;;;;;;;;7.60;99.90;;;;;;7344746;19;110838;-81
2022/05/02 04:14:43;;;;;;;;;;;7.60;99.90;;;;;;7344713;19;109228;-81
2022/05/02 04:17:11;;;;;;;;;;;7.60;99.90;;;;;;7344655;19;107336;-80
2022/05/02 04:19:38;;;;;;;;;;;7.60;99.90;;;;;;7345614;19;108375;-81
2022/05/02 04:22:05;;;;;;;;;;;7.50;99.90;;;;;;7345094;19;107934;-80
2022/05/02 04:24:32;;;;;;;;;;;7.50;99.90;;;;;;7349779;19;107164;-81
2022/05/02 04:26:58;;;;;;;;;;;7.50;99.90;;;;;;7346318;19;109359;-81
2022/05/02 04:29:25;;;;;;;;;;;7.50;99.90;;;;;;7345812;19;107243;-81
2022/05/02 04:31:52;;;;;;;;;;;7.50;99.90;;;;;;7343964;19;107832;-81
2022/05/02 04:34:19;;;;;;;;;;;7.50;99.90;;;;;;7346041;19;109591;-81
2022/05/02 04:36:46;;;;;;;;;;;7.50;99.90;;;;;;7344576;19;107300;-80
2022/05/02 04:39:13;;;;;;;;;;;7.60;99.90;;;;;;7345552;19;107948;-81
2022/05/02 04:41:40;;;;;;;;;;;7.70;99.90;;;;;;7344058;19;109251;-81
2022/05/02 04:44:07;;;;;;;;;;;7.70;99.90;;;;;;7344779;19;107560;-81
2022/05/02 04:46:34;;;;;;;;;;;7.70;99.90;;;;;;7350675;19;109104;-81
2022/05/02 04:49:01;;;;;;;;;;;7.80;99.90;;;;;;7345327;19;107603;-81
2022/05/02 04:51:28;;;;;;;;;;;7.80;99.90;;;;;;7342472;19;108232;-81
2022/05/02 04:53:55;;;;;;;;;;;7.90;99.90;;;;;;7343960;19;109564;-81
2022/05/02 04:56:22;;;;;;;;;;;7.90;99.90;;;;;;7345827;19;107193;-81
2022/05/02 04:58:49;;;;;;;;;;;8.00;99.90;;;;;;7344799;19;108107;-81
2022/05/02 05:01:16;;;;;;;;;;;8.10;99.90;;;;;;7346187;19;109029;-80
2022/05/02 05:03:43;;;;;;;;;;;8.10;99.90;;;;;;7345307;19;108149;-80
2022/05/02 05:06:10;;;;;;;;;;;8.20;99.90;;;;;;7344405;19;108118;-81
2022/05/02 05:08:37;;;;;;;;;;;8.20;99.90;;;;;;7350089;19;108963;-81
2022/05/02 05:11:34;;;;;;;;;;;8.30;99.90;;;;;;7340736;19;107963;-81
2022/05/02 05:17:10;;;;;;;;;;;8.20;99.90;;;;;;7342194;19;110016;-81
2022/05/02 05:19:41;;;;;;;;;;;8.20;99.90;;;;;;7341677;19;108109;-81
2022/05/02 05:22:14;;;;;;;;;;;8.30;99.90;;;;;;7343173;19;109444;-81
2022/05/02 05:25:08;;;;;;;;;;;8.30;99.90;;;;;;7343602;19;107961;-82
2022/05/02 05:27:35;;;;;;;;;;;8.40;99.90;;;;;;7342375;19;107863;-81
2022/05/02 05:30:06;;;;;;;;;;;8.40;99.90;;;;;;7345617;19;108841;-81
2022/05/02 05:32:52;;;;;;;;;;;8.50;99.90;;;;;;7345847;19;107844;-81
2022/05/02 05:35:22;;;;;;;;;;;8.60;99.90;;;;;;7349911;19;108852;-81
2022/05/02 05:37:59;;;;;;;;;;;8.70;99.90;;;;;;7350079;19;107759;-81
2022/05/02 05:40:29;;;;;;;;;;;8.80;99.90;;;;;;7351536;19;108074;-81
2022/05/02 05:43:14;;;;;;;;;;;8.90;99.90;;;;;;7349702;19;109205;-82
2022/05/02 05:45:41;;;;;;;;;;;9.00;99.90;;;;;;7351723;19;107378;-81
2022/05/02 05:48:17;;;;;;;;;;;9.10;99.90;;;;;;7351170;19;107944;-81
2022/05/02 05:50:49;;;;;;;;;;;9.20;99.90;;;;;;7348502;19;109280;-81
2022/05/02 05:53:35;;;;;;;;;;;9.30;99.90;;;;;;7356870;19;107659;-82
2022/05/02 05:56:08;;;;;;;;;;;9.50;99.90;;;;;;7348797;19;109267;-81
2022/05/02 05:58:53;;;;;;;;;;;9.70;99.90;;;;;;7351018;19;107771;-82
2022/05/02 06:01:41;;;;;;;;;;;9.70;99.90;;;;;;7350463;19;108297;-81
2022/05/02 06:04:10;;;;;;;;;;;9.80;99.90;;;;;;7348166;19;109126;-81
2022/05/02 06:06:37;;;;;;;;;;;9.90;99.90;;;;;;7350132;19;107961;-82
2022/05/02 06:09:05;;;;;;;;;;;10.00;99.90;;;;;;7349236;19;109567;-81
2022/05/02 06:11:33;;;;;;;;;;;10.10;99.90;;;;;;7349594;19;108705;-81
2022/05/02 06:14:01;;;;;;;;;;;10.30;99.90;;;;;;7348073;19;107288;-81
2022/05/02 06:19:22;;;;;;;;;;;10.50;99.90;;;;;;7351168;19;107568;-81
2022/05/02 06:21:49;;;;;;;;;;;10.60;99.90;;;;;;7349631;19;108118;-81
2022/05/02 06:24:16;;;;;;;;;;;10.70;99.90;;;;;;7349492;19;108923;-81
2022/05/02 06:26:45;;;;;;;;;;;10.90;99.90;;;;;;7347850;19;107491;-81
2022/05/02 06:29:12;;;;;;;;;;;10.90;99.90;;;;;;7349829;19;107798;-80
2022/05/02 06:31:43;;;;;;;;;;;11.10;99.90;;;;;;7347308;19;109135;-81
2022/05/02 06:34:10;;;;;;;;;;;11.20;99.90;;;;;;7349837;19;107676;-81
2022/05/02 06:36:59;;;;;;;;;;;11.30;99.90;;;;;;7348268;19;108095;-80
2022/05/02 06:39:29;;;;;;;;;;;11.50;99.90;;;;;;7355563;19;109230;-79
2022/05/02 06:42:11;;;;;;;;;;;11.60;99.90;;;;;;7348420;19;108199;-80
2022/05/02 06:44:48;;;;;;;;;;;11.60;99.90;;;;;;7349091;19;108923;-80
2022/05/02 06:47:35;;;;;;;;;;;11.80;99.90;;;;;;7349610;19;107293;-80
2022/05/02 06:50:03;;;;;;;;;;;11.90;99.90;;;;;;7346073;19;107691;-80
2022/05/02 06:52:40;;;;;;;;;;;12.10;99.90;;;;;;7349710;19;108906;-80
2022/05/02 06:55:07;;;;;;;;;;;12.30;99.90;;;;;;7346942;19;107526;-80
2022/05/02 06:57:34;;;;;;;;;;;12.40;99.90;;;;;;7348968;19;107850;-80
2022/05/02 07:00:01;;;;;;;;;;;12.50;99.90;;;;;;7347373;19;109173;-80
2022/05/02 07:02:46;;;;;;;;;;;12.60;99.90;;;;;;7354500;19;108459;-79
2022/05/02 07:05:37;;;;;;;;;;;12.70;99.60;;;;;;7348283;19;109020;-80
2022/05/02 07:08:05;;;;;;;;;;;12.80;98.80;;;;;;7346750;19;107332;-80
2022/05/02 07:10:34;;;;;;;;;;;12.90;98.90;;;;;;7348149;19;108282;-79
2022/05/02 07:13:01;;;;;;;;;;;13.00;98.50;;;;;;7348526;19;109195;-80
2022/05/02 07:15:34;;;;;;;;;;;13.00;98.50;;;;;;7348960;19;107015;-80
2022/05/02 07:18:01;;;;;;;;;;;13.10;98.40;;;;;;7344314;19;108172;-80
2022/05/02 07:20:35;;;;;;;;;;;13.20;98.10;;;;;;7348055;19;109006;-80
2022/05/02 07:23:22;;;;;;;;;;;13.30;98.50;;;;;;7347744;19;107328;-80
2022/05/02 07:25:51;;;;;;;;;;;13.50;98.30;;;;;;7352796;19;107276;-80
2022/05/02 07:28:26;;;;;;;;;;;13.70;98.20;;;;;;7347710;19;107116;-80
2022/05/02 07:30:56;;;;;;;;;;;13.80;97.60;;;;;;7347201;19;110288;-79
2022/05/02 07:33:25;;;;;;;;;;;13.90;96.70;;;;;;7347939;19;108928;-80
2022/05/02 07:35:53;;;;;;;;;;;13.90;96.60;;;;;;7348005;19;107923;-80
2022/05/02 07:38:21;;;;;;;;;;;13.90;96.30;;;;;;7347920;19;108012;-80
2022/05/02 07:43:36;;;;;;;;;;;14.10;96.40;;;;;;7347526;19;107218;-79
2022/05/02 07:46:03;;;;;;;;;;;14.20;96.20;;;;;;7347533;19;107603;-80
2022/05/02 07:48:31;;;;;;;;;;;14.30;96.00;;;;;;7346292;19;107796;-80
2022/05/02 07:50:59;;;;;;;;;;;14.50;95.30;;;;;;7344822;19;107827;-80
2022/05/02 07:53:28;;;;;;;;;;;14.60;94.00;;;;;;7347829;19;109970;-80
2022/05/02 07:55:56;;;;;;;;;;;14.50;93.60;;;;;;7346016;19;107275;-80
2022/05/02 07:58:26;;;;;;;;;;;14.50;94.00;;;;;;7346507;19;107986;-80
2022/05/02 08:00:53;;;;;;;;;;;14.60;93.80;;;;;;7345665;19;109062;-80
2022/05/02 08:03:23;;;;;;;;;;;14.70;93.20;;;;;;7346703;19;107518;-80
2022/05/02 08:05:54;;;;;;;;;;;14.90;93.10;;;;;;7346839;19;108591;-80
2022/05/02 08:08:31;;;;;;;;;;;14.90;91.80;;;;;;7353366;19;109685;-80
2022/05/02 08:11:05;;;;;;;;;;;14.90;91.10;;;;;;7344966;19;112257;-80
2022/05/02 08:13:46;;;;;;;;;;;14.90;91.50;;;;;;7347142;19;108911;-80
2022/05/02 08:16:19;;;;;;;;;;;15.00;91.80;;;;;;7346397;19;107830;-80
2022/05/02 08:19:01;;;;;;;;;;;15.00;89.60;;;;;;7346740;19;107629;-80
2022/05/02 08:21:32;;;;;;;;;;;15.10;90.00;;;;;;7346353;19;108988;-80
2022/05/02 08:27:17;;;;;;;;;;;15.20;90.80;;;;;;7346419;19;108113;-79
2022/05/02 08:29:50;;;;;;;;;;;15.30;90.20;;;;;;7346254;19;109192;-80
2022/05/02 08:32:23;;;;;;;;;;;15.40;90.40;;;;;;7346462;19;107378;-80
2022/05/02 08:35:02;;;;;;;;;;;15.40;89.50;;;;;;7344962;19;109164;-80
2022/05/02 08:37:35;;;;;;;;;;;15.40;90.30;;;;;;7343594;19;107699;-80
2022/05/02 08:40:04;;;;;;;;;;;15.60;90.70;;;;;;7346333;19;107918;-80
2022/05/02 08:42:36;;;;;;;;;;;15.60;89.80;;;;;;7344569;19;108211;-80
2022/05/02 08:45:22;;;;;;;;;;;15.70;88.10;;;;;;7345667;19;107315;-80
2022/05/02 08:47:55;;;;;;;;;;;15.70;88.20;;;;;;7344915;19;107231;-79
2022/05/02 08:50:29;;;;;;;;;;;15.80;90.20;;;;;;7343773;19;109659;-80
2022/05/02 08:53:05;;;;;;;;;;;15.90;87.80;;;;;;7344844;19;107712;-80
2022/05/02 08:55:45;;;;;;;;;;;15.90;87.60;;;;;;7350536;19;108566;-80
2022/05/02 08:58:24;;;;;;;;;;;16.10;89.80;;;;;;7345438;19;107882;-80
2022/05/02 09:01:11;;;;;;;;;;;16.20;88.20;;;;;;7343765;19;107903;-80
2022/05/02 09:03:57;;;;;;;;;;;16.20;87.50;;;;;;7343709;19;109537;-80
2022/05/02 09:07:01;;;;;;;;;;;16.10;84.50;;;;;;7340292;19;107206;-80
2022/05/02 09:09:49;;;;;;;;;;;16.20;84.90;;;;;;7340811;19;107849;-80
2022/05/02 09:12:18;;;;;;;;;;;16.20;84.50;;;;;;7338913;19;109292;-80
2022/05/02 09:15:12;;;;;;;;;;;16.30;87.90;;;;;;7341288;19;107355;-80
2022/05/02 09:17:45;;;;;;;;;;;16.40;84.70;;;;;;7339381;19;108521;-80
2022/05/02 09:20:24;;;;;;;;;;;16.40;84.90;;;;;;7345020;19;107905;-80
2022/05/02 09:22:57;;;;;;;;;;;16.30;83.00;;;;;;7341137;19;108507;-80
2022/05/02 09:25:39;;;;;;;;;;;16.50;85.60;;;;;;7340386;19;108794;-80
2022/05/02 09:28:22;;;;;;;;;;;16.60;81.20;;;;;;7341229;19;108016;-80
2022/05/02 09:30:55;;;;;;;;;;;16.60;83.30;;;;;;7341085;19;109111;-80
2022/05/02 09:33:29;;;;;;;;;;;16.70;82.90;;;;;;7340267;19;108912;-80
2022/05/02 09:35:59;;;;;;;;;;;16.90;83.20;;;;;;7339160;19;107284;-79
2022/05/02 09:38:29;;;;;;;;;;;17.10;81.60;;;;;;7340334;19;107915;-80
2022/05/02 09:40:59;;;;;;;;;;;17.20;82.40;;;;;;7339049;19;108909;-80
2022/05/02 09:49:33;;;;;;;;;;;17.20;80.30;;;;;;7345786;19;108692;-80
2022/05/02 09:49:43;;;;;;;;;;;17.20;81.30;;;;;;7344189;19;107134;-80
2022/05/02 09:52:15;;;;;;;;;;;17.10;78.70;;;;;;7336435;19;108243;-80
2022/05/02 09:57:45;;;;;;;;;;;17.00;80.20;;;;;;7339846;19;107445;-80
2022/05/02 10:03:09;;;;;;;;;;;17.10;78.00;;;;;;7338555;19;109221;-80
2022/05/02 10:05:45;;;;;;;;;;;17.30;81.20;;;;;;7344781;19;108047;-80
2022/05/02 10:08:30;;;;;;;;;;;17.40;78.60;;;;;;7338584;19;108355;-80
2022/05/02 10:10:59;;;;;;;;;;;17.40;79.70;;;;;;7338264;19;107144;-80
2022/05/02 10:13:34;;;;;;;;;;;17.60;79.60;;;;;;7338371;19;107913;-80
2022/05/02 10:16:04;;;;;;;;;;;17.80;80.10;;;;;;7338918;19;108848;-80
2022/05/02 10:18:40;;;;;;;;;;;17.90;77.60;;;;;;7341542;19;107394;-80
2022/05/02 10:21:25;;;;;;;;;;;17.70;74.40;;;;;;7343643;19;108189;-80
2022/05/02 10:24:16;;;;;;;;;;;17.60;75.50;;;;;;7345234;19;109332;-80
2022/05/02 10:26:50;;;;;;;;;;;17.70;78.50;;;;;;7349221;19;107386;-80
2022/05/02 10:29:17;;;;;;;;;;;18.00;75.60;;;;;;7354056;19;108513;-80
2022/05/02 10:31:49;;;;;;;;;;;18.10;74.90;;;;;;7348243;19;107207;-80
2022/05/02 10:34:17;;;;;;;;;;;18.10;71.60;;;;;;7350143;19;109087;-80
2022/05/02 10:36:47;;;;;;;;;;;17.90;73.90;;;;;;7348653;19;110760;-80
2022/05/02 10:39:19;;;;;;;;;;;17.90;75.80;;;;;;7348573;19;111015;-80
2022/05/02 10:41:48;;;;;;;;;;;18.10;72.60;;;;;;7349663;19;108103;-80
2022/05/02 10:44:16;;;;;;;;;;;18.10;69.50;;;;;;7347623;19;108933;-80
2022/05/02 10:46:46;;;;;;;;;;;18.10;70.90;;;;;;7350165;19;107034;-80
2022/05/02 10:49:19;;;;;;;;;;;18.20;69.80;;;;;;7348884;19;106983;-80
2022/05/02 10:51:49;;;;;;;;;;;18.20;69.50;;;;;;7353155;19;109932;-81
2022/05/02 10:54:19;;;;;;;;;;;18.20;71.00;;;;;;7348687;19;108490;-81
2022/05/02 10:56:54;;;;;;;;;;;18.40;71.10;;;;;;7349408;19;108559;-81
2022/05/02 10:59:23;;;;;;;;;;;18.50;69.30;;;;;;7346514;19;107876;-81
2022/05/02 11:01:50;;;;;;;;;;;18.70;67.20;;;;;;7346921;19;108226;-81
2022/05/02 11:04:29;;;;;;;;;;;18.80;66.20;;;;;;7347274;19;108908;-82
2022/05/02 11:06:56;;;;;;;;;;;18.90;66.20;;;;;;7349228;19;107130;-81
2022/05/02 11:09:29;;;;;;;;;;;18.90;65.50;;;;;;7349862;19;108187;-81
2022/05/02 11:11:58;;;;;;;;;;;18.60;63.60;;;;;;7347996;19;108894;-81
2022/05/02 11:14:28;;;;;;;;;;;18.60;64.00;;;;;;7355311;19;107342;-81
2022/05/02 11:17:10;;;;;;;;;;;18.60;65.00;;;;;;7346849;19;109540;-81
2022/05/02 11:22:39;;;;;;;;;;;18.70;67.30;;;;;;7347979;19;107775;-81
2022/05/02 11:25:20;;;;;;;;;;;18.90;66.30;;;;;;7347294;19;108581;-81
2022/05/02 11:27:56;;;;;;;;;;;19.00;66.80;;;;;;7348260;19;107218;-82
2022/05/02 11:30:27;;;;;;;;;;;18.90;63.90;;;;;;7346386;19;108009;-81
2022/05/02 11:32:54;;;;;;;;;;;18.80;64.00;;;;;;7346785;19;109188;-81
2022/05/02 11:35:24;;;;;;;;;;;18.90;64.80;;;;;;7349026;19;107357;-81
2022/05/02 11:37:56;;;;;;;;;;;19.00;65.30;;;;;;7354582;19;108216;-81
2022/05/02 11:40:27;;;;;;;;;;;19.20;64.00;;;;;;7347956;19;107236;-82
2022/05/02 11:42:54;;;;;;;;;;;19.20;64.80;;;;;;7348610;19;107172;-81
2022/05/02 11:45:28;;;;;;;;;;;19.40;64.90;;;;;;7348251;19;108792;-81
2022/05/02 11:47:54;;;;;;;;;;;19.50;64.20;;;;;;7348514;19;107008;-81
2022/05/02 11:50:25;;;;;;;;;;;19.50;62.50;;;;;;7346500;19;111051;-81
2022/05/02 11:52:56;;;;;;;;;;;19.60;64.30;;;;;;7345742;19;112427;-81
2022/05/02 11:55:27;;;;;;;;;;;19.70;64.90;;;;;;7348110;19;107468;-81
2022/05/02 11:58:00;;;;;;;;;;;19.90;64.10;;;;;;7351786;19;108112;-81
2022/05/02 12:00:35;;;;;;;;;;;20.00;63.20;;;;;;7348428;19;108031;-81
2022/05/02 12:03:07;;;;;;;;;;;20.10;63.90;;;;;;7345705;19;110808;-82
2022/05/02 12:05:41;;;;;;;;;;;20.20;62.90;;;;;;7347349;19;110158;-81
2022/05/02 12:08:09;;;;;;;;;;;20.20;60.30;;;;;;7345605;19;107239;-81
2022/05/02 12:10:40;;;;;;;;;;;20.40;61.30;;;;;;7347812;19;107870;-81
2022/05/02 12:13:12;;;;;;;;;;;20.60;64.80;;;;;;7344579;19;109417;-82
2022/05/02 12:15:57;;;;;;;;;;;20.90;62.40;;;;;;7345091;19;107784;-81
2022/05/02 12:18:40;;;;;;;;;;;21.00;60.70;;;;;;7343052;19;108175;-82
2022/05/02 12:21:08;;;;;;;;;;;20.70;57.20;;;;;;7350156;19;108761;-81
2022/05/02 12:23:37;;;;;;;;;;;20.50;61.10;;;;;;7347404;19;108216;-81
2022/05/02 12:26:12;;;;;;;;;;;20.60;58.00;;;;;;7344786;19;108920;-81
2022/05/02 12:28:43;;;;;;;;;;;20.70;61.20;;;;;;7346527;19;107314;-81
2022/05/02 12:31:15;;;;;;;;;;;21.00;58.40;;;;;;7347011;19;108372;-81
2022/05/02 12:33:43;;;;;;;;;;;21.30;58.90;;;;;;7341265;19;109160;-81
2022/05/02 12:36:13;;;;;;;;;;;21.50;56.50;;;;;;7345673;19;107971;-87
2022/05/02 12:38:43;;;;;;;;;;;21.90;56.90;;;;;;7344536;19;109585;-87
2022/05/02 12:41:11;;;;;;;;;;;22.50;57.90;;;;;;7341146;19;111014;-88
2022/05/02 12:43:44;;;;;;;;;;;22.80;56.70;;;;;;7342167;19;107456;-88
2022/05/02 12:46:11;;;;;;;;;;;22.90;53.60;;;;;;7342678;19;109441;-88
2022/05/02 12:48:39;;;;;;;;;;;22.80;53.70;;;;;;7345678;19;106979;-87
2022/05/02 12:51:07;;;;;;;;;;;22.80;56.30;;;;;;7342072;19;108337;-87
2022/05/02 12:56:21;;;;;;;;;;;23.20;55.80;;;;;;7344361;19;108154;-87
2022/05/02 13:01:43;;;;;;;;;;;23.30;52.00;;;;;;7346393;19;109515;-88
2022/05/02 13:04:20;;;;;;;;;;;23.40;53.00;;;;;;7346898;19;107009;-89
2022/05/02 13:06:49;;;;;;;;;;;23.50;54.10;;;;;;7349392;19;110270;-87
2022/05/02 13:09:20;;;;;;;;;;;23.60;52.50;;;;;;7344345;19;107812;-89
2022/05/02 13:11:47;;;;;;;;;;;23.70;52.60;;;;;;7340789;19;107875;-89
2022/05/02 13:14:19;;;;;;;;;;;23.90;54.50;;;;;;7342090;19;110796;-89
2022/05/02 13:16:46;;;;;;;;;;;24.20;54.10;;;;;;7341508;19;107462;-88
2022/05/02 13:19:14;;;;;;;;;;;24.30;51.80;;;;;;7341892;19;111462;-89
2022/05/02 13:21:41;;;;;;;;;;;24.20;49.90;;;;;;7339612;19;111496;-89
2022/05/02 13:24:10;;;;;;;;;;;24.10;51.30;;;;;;7342484;19;107276;-90
2022/05/02 13:26:50;;;;;;;;;;;24.10;51.90;;;;;;7343192;19;108276;-89
2022/05/02 13:29:26;;;;;;;;;;;24.20;53.00;;;;;;7347986;19;110970;-88
2022/05/02 13:31:56;;;;;;;;;;;24.30;48.30;;;;;;7342940;19;107419;-88
2022/05/02 13:34:29;;;;;;;;;;;24.30;48.70;;;;;;7344004;19;111995;-88
2022/05/02 13:37:17;;;;;;;;;;;24.40;51.00;;;;;;7342388;19;107451;-88
2022/05/02 13:39:55;;;;;;;;;;;24.20;49.30;;;;;;7342106;19;107849;-88
2022/05/02 13:42:22;;;;;;;;;;;24.20;51.30;;;;;;7343746;19;109028;-88
2022/05/02 13:44:55;;;;;;;;;;;24.20;49.50;;;;;;7343457;19;107187;-88
2022/05/02 13:47:26;;;;;;;;;;;24.30;51.30;;;;;;7343903;19;107213;-89
2022/05/02 13:50:02;;;;;;;;;;;24.30;50.30;;;;;;7343581;19;109152;-88
2022/05/02 13:52:35;;;;;;;;;;;24.40;50.30;;;;;;7349395;19;106885;-88
2022/05/02 13:55:33;;;;;;;;;;;24.70;49.50;;;;;;7351344;19;108768;-89
2022/05/02 13:58:14;;;;;;;;;;;24.90;48.90;;;;;;7349641;19;106992;-88
2022/05/02 14:03:47;;;;;;;;;;;25.00;49.30;;;;;;7348620;19;107905;-89
2022/05/02 14:06:18;;;;;;;;;;;25.00;48.60;;;;;;7348767;19;107061;-87
2022/05/02 14:08:45;;;;;;;;;;;25.10;48.80;;;;;;7349622;19;108189;-88
2022/05/02 14:11:17;;;;;;;;;;;24.90;47.10;;;;;;7350731;19;108830;-88
2022/05/02 14:13:46;;;;;;;;;;;24.80;46.30;;;;;;7354356;19;107428;-87
2022/05/02 14:16:15;;;;;;;;;;;24.80;47.80;;;;;;7350492;19;109175;-89
2022/05/02 14:18:55;;;;;;;;;;;25.00;46.40;;;;;;7352092;19;107280;-88
2022/05/02 14:21:23;;;;;;;;;;;24.80;47.50;;;;;;7352453;19;110263;-87
2022/05/02 14:23:59;;;;;;;;;;;24.80;45.20;;;;;;7351665;19;108706;-90
2022/05/02 14:26:27;;;;;;;;;;;24.90;46.20;;;;;;7350702;19;107816;-88
2022/05/02 14:28:55;;;;;;;;;;;24.90;47.40;;;;;;7352713;19;107901;-88
2022/05/02 14:31:32;;;;;;;;;;;25.00;45.10;;;;;;7350987;19;108703;-88
2022/05/02 14:34:10;;;;;;;;;;;24.80;44.90;;;;;;7353687;19;107638;-87
2022/05/02 14:36:41;;;;;;;;;;;24.70;46.00;;;;;;7357529;19;107987;-87
2022/05/02 14:39:11;;;;;;;;;;;24.70;45.80;;;;;;7349754;19;107134;-88
2022/05/02 14:41:39;;;;;;;;;;;24.70;45.40;;;;;;7350526;19;107964;-88
2022/05/02 14:44:08;;;;;;;;;;;24.80;46.90;;;;;;7347970;19;108792;-88
2022/05/02 14:46:36;;;;;;;;;;;24.90;45.40;;;;;;7354046;19;107238;-89
2022/05/02 14:49:03;;;;;;;;;;;25.00;47.00;;;;;;7350240;19;107881;-87
2022/05/02 14:51:38;;;;;;;;;;;25.20;46.60;;;;;;7345402;19;108300;-87
2022/05/02 14:54:09;;;;;;;;;;;25.30;44.60;;;;;;7347728;19;107457;-88
2022/05/02 14:56:42;;;;;;;;;;;25.10;43.70;;;;;;7348635;19;111855;-88
2022/05/02 14:59:12;;;;;;;;;;;25.10;46.50;;;;;;7352840;19;108417;-88
2022/05/02 15:01:39;;;;;;;;;;;25.20;47.60;;;;;;7347016;19;109215;-88
2022/05/02 15:04:10;;;;;;;;;;;25.60;47.40;;;;;;7347224;19;108672;-88
2022/05/02 15:06:37;;;;;;;;;;;25.80;46.90;;;;;;7347772;19;107217;-88